sensor_id;sensor_type;location;lat;lon;timestamp;P1;durP1;ratioP1;P2;durP2;ratioP2
5813;SDS011;2933;52.302;8.134;2022-10-13T00:00:10;3.47;;;3.20;;
5813;SDS011;2933;52.302;8.134;2022-10-13T00:05:13;5.03;;;3.50;;
5813;SDS011;2933;52.302;8.134;2022-10-13T00:10:14;3.47;;;3.10;;
5813;SDS011;2933;52.302;8.134;2022-10-13T00:15:16;5.43;;;3.40;;
5813;SDS011;2933;52.302;8.134;2022-10-13T00:20:20;3.03;;;2.80;;
5813;SDS011;2933;52.302;8.134;2022-10-13T00:25:21;4.20;;;3.30;;
5813;SDS011;2933;52.302;8.134;2022-10-13T00:30:23;4.40;;;3.43;;
5813;SDS011;2933;52.302;8.134;2022-10-13T00:35:25;7.53;;;3.97;;
5813;SDS011;2933;52.302;8.134;2022-10-13T00:40:27;4.47;;;3.30;;
5813;SDS011;2933;52.302;8.134;2022-10-13T00:45:28;3.23;;;3.03;;
5813;SDS011;2933;52.302;8.134;2022-10-13T00:50:32;3.17;;;2.90;;
5813;SDS011;2933;52.302;8.134;2022-10-13T00:55:37;6.10;;;3.80;;
5813;SDS011;2933;52.302;8.134;2022-10-13T01:00:42;3.67;;;3.30;;
5813;SDS011;2933;52.302;8.134;2022-10-13T01:05:48;3.37;;;3.07;;
5813;SDS011;2933;52.302;8.134;2022-10-13T01:10:54;3.83;;;2.93;;
5813;SDS011;2933;52.302;8.134;2022-10-13T01:16:05;2.80;;;2.60;;
5813;SDS011;2933;52.302;8.134;2022-10-13T01:21:17;5.60;;;2.97;;
5813;SDS011;2933;52.302;8.134;2022-10-13T01:26:32;7.43;;;2.90;;
5813;SDS011;2933;52.302;8.134;2022-10-13T01:31:47;4.93;;;2.93;;
5813;SDS011;2933;52.302;8.134;2022-10-13T01:36:55;4.40;;;3.50;;
5813;SDS011;2933;52.302;8.134;2022-10-13T01:42:03;5.73;;;4.00;;
5813;SDS011;2933;52.302;8.134;2022-10-13T01:47:13;3.13;;;2.83;;
5813;SDS011;2933;52.302;8.134;2022-10-13T01:52:17;3.63;;;3.33;;
5813;SDS011;2933;52.302;8.134;2022-10-13T01:57:28;4.07;;;3.67;;
5813;SDS011;2933;52.302;8.134;2022-10-13T02:02:36;4.77;;;3.50;;
5813;SDS011;2933;52.302;8.134;2022-10-13T02:07:44;3.83;;;3.53;;
5813;SDS011;2933;52.302;8.134;2022-10-13T02:12:50;3.80;;;3.50;;
5813;SDS011;2933;52.302;8.134;2022-10-13T02:17:58;3.90;;;3.53;;
5813;SDS011;2933;52.302;8.134;2022-10-13T02:23:03;3.90;;;3.37;;
5813;SDS011;2933;52.302;8.134;2022-10-13T02:28:09;4.73;;;3.00;;
5813;SDS011;2933;52.302;8.134;2022-10-13T02:33:12;3.57;;;3.33;;
5813;SDS011;2933;52.302;8.134;2022-10-13T02:38:15;6.40;;;3.60;;
5813;SDS011;2933;52.302;8.134;2022-10-13T02:43:17;6.53;;;4.20;;
5813;SDS011;2933;52.302;8.134;2022-10-13T02:48:20;5.30;;;3.50;;
5813;SDS011;2933;52.302;8.134;2022-10-13T02:53:21;3.30;;;3.10;;
5813;SDS011;2933;52.302;8.134;2022-10-13T02:58:23;7.60;;;3.97;;
5813;SDS011;2933;52.302;8.134;2022-10-13T03:03:26;5.00;;;4.00;;
5813;SDS011;2933;52.302;8.134;2022-10-13T03:08:27;5.60;;;4.17;;
5813;SDS011;2933;52.302;8.134;2022-10-13T03:13:29;3.67;;;3.37;;
5813;SDS011;2933;52.302;8.134;2022-10-13T03:18:32;4.83;;;3.80;;
5813;SDS011;2933;52.302;8.134;2022-10-13T03:23:34;6.67;;;4.07;;
5813;SDS011;2933;52.302;8.134;2022-10-13T03:28:36;7.00;;;4.80;;
5813;SDS011;2933;52.302;8.134;2022-10-13T03:33:39;10.00;;;4.07;;
5813;SDS011;2933;52.302;8.134;2022-10-13T03:38:41;7.83;;;4.53;;
5813;SDS011;2933;52.302;8.134;2022-10-13T03:43:42;6.43;;;4.70;;
5813;SDS011;2933;52.302;8.134;2022-10-13T03:48:46;7.27;;;4.40;;
5813;SDS011;2933;52.302;8.134;2022-10-13T03:53:48;10.40;;;4.93;;
5813;SDS011;2933;52.302;8.134;2022-10-13T03:58:51;9.10;;;4.37;;
5813;SDS011;2933;52.302;8.134;2022-10-13T04:03:56;9.87;;;5.43;;
5813;SDS011;2933;52.302;8.134;2022-10-13T04:08:58;8.30;;;5.10;;
5813;SDS011;2933;52.302;8.134;2022-10-13T04:14:00;9.87;;;6.27;;
5813;SDS011;2933;52.302;8.134;2022-10-13T04:19:03;12.03;;;5.73;;
5813;SDS011;2933;52.302;8.134;2022-10-13T04:24:05;9.77;;;5.73;;
5813;SDS011;2933;52.302;8.134;2022-10-13T04:29:08;11.27;;;6.30;;
5813;SDS011;2933;52.302;8.134;2022-10-13T04:34:12;13.90;;;7.03;;
5813;SDS011;2933;52.302;8.134;2022-10-13T04:39:13;16.77;;;7.80;;
5813;SDS011;2933;52.302;8.134;2022-10-13T04:44:15;13.00;;;7.27;;
5813;SDS011;2933;52.302;8.134;2022-10-13T04:49:17;13.77;;;7.40;;
5813;SDS011;2933;52.302;8.134;2022-10-13T04:54:19;13.13;;;6.77;;
5813;SDS011;2933;52.302;8.134;2022-10-13T04:59:21;18.93;;;7.90;;
5813;SDS011;2933;52.302;8.134;2022-10-13T05:04:23;15.73;;;8.10;;
5813;SDS011;2933;52.302;8.134;2022-10-13T05:09:25;12.10;;;7.70;;
5813;SDS011;2933;52.302;8.134;2022-10-13T05:14:27;17.50;;;9.37;;
5813;SDS011;2933;52.302;8.134;2022-10-13T05:19:31;22.90;;;9.60;;
5813;SDS011;2933;52.302;8.134;2022-10-13T05:24:33;14.63;;;8.30;;
5813;SDS011;2933;52.302;8.134;2022-10-13T05:29:36;16.27;;;9.23;;
5813;SDS011;2933;52.302;8.134;2022-10-13T05:34:40;20.00;;;10.13;;
5813;SDS011;2933;52.302;8.134;2022-10-13T05:39:41;17.00;;;9.90;;
5813;SDS011;2933;52.302;8.134;2022-10-13T05:44:43;18.97;;;9.20;;
5813;SDS011;2933;52.302;8.134;2022-10-13T05:49:46;19.67;;;10.57;;
5813;SDS011;2933;52.302;8.134;2022-10-13T05:54:48;19.90;;;11.60;;
5813;SDS011;2933;52.302;8.134;2022-10-13T05:59:54;22.93;;;11.03;;
5813;SDS011;2933;52.302;8.134;2022-10-13T06:05:01;20.40;;;11.63;;
5813;SDS011;2933;52.302;8.134;2022-10-13T06:10:05;28.37;;;12.90;;
5813;SDS011;2933;52.302;8.134;2022-10-13T06:15:07;22.47;;;12.03;;
5813;SDS011;2933;52.302;8.134;2022-10-13T06:20:11;25.33;;;13.60;;
5813;SDS011;2933;52.302;8.134;2022-10-13T06:25:12;32.50;;;16.23;;
5813;SDS011;2933;52.302;8.134;2022-10-13T06:30:14;28.53;;;17.10;;
5813;SDS011;2933;52.302;8.134;2022-10-13T06:35:17;28.07;;;17.40;;
5813;SDS011;2933;52.302;8.134;2022-10-13T06:40:18;35.23;;;19.90;;
5813;SDS011;2933;52.302;8.134;2022-10-13T06:45:20;23.00;;;18.80;;
5813;SDS011;2933;52.302;8.134;2022-10-13T06:50:23;28.27;;;21.07;;
5813;SDS011;2933;52.302;8.134;2022-10-13T06:55:25;31.30;;;22.60;;
5813;SDS011;2933;52.302;8.134;2022-10-13T07:00:27;28.30;;;21.07;;
5813;SDS011;2933;52.302;8.134;2022-10-13T07:05:30;31.23;;;21.03;;
5813;SDS011;2933;52.302;8.134;2022-10-13T07:10:32;31.40;;;21.07;;
5813;SDS011;2933;52.302;8.134;2022-10-13T07:15:35;30.57;;;21.87;;
5813;SDS011;2933;52.302;8.134;2022-10-13T07:20:38;26.20;;;20.50;;
5813;SDS011;2933;52.302;8.134;2022-10-13T07:25:40;33.20;;;19.90;;
5813;SDS011;2933;52.302;8.134;2022-10-13T07:30:42;36.23;;;20.83;;
5813;SDS011;2933;52.302;8.134;2022-10-13T07:35:45;32.23;;;19.13;;
5813;SDS011;2933;52.302;8.134;2022-10-13T07:40:47;23.87;;;17.87;;
5813;SDS011;2933;52.302;8.134;2022-10-13T07:45:48;20.57;;;16.97;;
5813;SDS011;2933;52.302;8.134;2022-10-13T07:50:51;23.97;;;16.77;;
5813;SDS011;2933;52.302;8.134;2022-10-13T07:55:53;24.47;;;16.10;;
5813;SDS011;2933;52.302;8.134;2022-10-13T08:00:55;25.70;;;16.37;;
5813;SDS011;2933;52.302;8.134;2022-10-13T08:05:59;21.30;;;16.70;;
5813;SDS011;2933;52.302;8.134;2022-10-13T08:11:01;25.63;;;17.30;;
5813;SDS011;2933;52.302;8.134;2022-10-13T08:16:03;18.13;;;13.70;;
5813;SDS011;2933;52.302;8.134;2022-10-13T08:21:08;23.20;;;13.33;;
5813;SDS011;2933;52.302;8.134;2022-10-13T08:26:13;26.67;;;12.30;;
5813;SDS011;2933;52.302;8.134;2022-10-13T08:31:17;21.77;;;12.33;;
5813;SDS011;2933;52.302;8.134;2022-10-13T08:36:21;23.43;;;10.73;;
5813;SDS011;2933;52.302;8.134;2022-10-13T08:41:24;24.13;;;11.40;;
5813;SDS011;2933;52.302;8.134;2022-10-13T08:46:29;22.77;;;10.70;;
5813;SDS011;2933;52.302;8.134;2022-10-13T08:51:40;20.93;;;10.90;;
5813;SDS011;2933;52.302;8.134;2022-10-13T08:56:42;16.93;;;8.83;;
5813;SDS011;2933;52.302;8.134;2022-10-13T09:01:50;19.70;;;8.90;;
5813;SDS011;2933;52.302;8.134;2022-10-13T09:06:55;24.93;;;10.00;;
5813;SDS011;2933;52.302;8.134;2022-10-13T09:12:00;23.57;;;10.27;;
5813;SDS011;2933;52.302;8.134;2022-10-13T09:17:11;16.63;;;9.00;;
5813;SDS011;2933;52.302;8.134;2022-10-13T09:22:20;13.60;;;8.10;;
5813;SDS011;2933;52.302;8.134;2022-10-13T09:27:23;23.90;;;9.83;;
5813;SDS011;2933;52.302;8.134;2022-10-13T09:32:24;19.27;;;8.80;;
5813;SDS011;2933;52.302;8.134;2022-10-13T09:37:27;17.27;;;9.17;;
5813;SDS011;2933;52.302;8.134;2022-10-13T09:42:29;21.33;;;8.87;;
5813;SDS011;2933;52.302;8.134;2022-10-13T09:47:31;13.53;;;8.73;;
5813;SDS011;2933;52.302;8.134;2022-10-13T09:52:34;21.47;;;9.07;;
5813;SDS011;2933;52.302;8.134;2022-10-13T09:57:38;15.73;;;8.37;;
5813;SDS011;2933;52.302;8.134;2022-10-13T10:02:43;15.90;;;8.00;;
5813;SDS011;2933;52.302;8.134;2022-10-13T10:07:52;17.60;;;9.50;;
5813;SDS011;2933;52.302;8.134;2022-10-13T10:13:00;12.60;;;7.03;;
5813;SDS011;2933;52.302;8.134;2022-10-13T10:18:04;21.10;;;8.90;;
5813;SDS011;2933;52.302;8.134;2022-10-13T10:23:16;15.67;;;8.43;;
5813;SDS011;2933;52.302;8.134;2022-10-13T10:28:31;18.67;;;9.03;;
5813;SDS011;2933;52.302;8.134;2022-10-13T10:33:52;13.10;;;7.87;;
5813;SDS011;2933;52.302;8.134;2022-10-13T10:39:07;19.40;;;8.57;;
5813;SDS011;2933;52.302;8.134;2022-10-13T10:44:20;13.93;;;8.00;;
5813;SDS011;2933;52.302;8.134;2022-10-13T10:49:41;17.03;;;8.33;;
5813;SDS011;2933;52.302;8.134;2022-10-13T10:54:58;14.93;;;8.10;;
5813;SDS011;2933;52.302;8.134;2022-10-13T11:00:16;11.73;;;7.70;;
5813;SDS011;2933;52.302;8.134;2022-10-13T11:05:22;20.67;;;7.83;;
5813;SDS011;2933;52.302;8.134;2022-10-13T11:10:28;19.80;;;8.33;;
5813;SDS011;2933;52.302;8.134;2022-10-13T11:15:40;16.57;;;7.50;;
5813;SDS011;2933;52.302;8.134;2022-10-13T11:20:47;13.07;;;7.70;;
5813;SDS011;2933;52.302;8.134;2022-10-13T11:31:37;19.13;;;7.73;;
5813;SDS011;2933;52.302;8.134;2022-10-13T11:36:57;19.23;;;8.03;;
5813;SDS011;2933;52.302;8.134;2022-10-13T12:35:22;17.03;;;8.40;;
5813;SDS011;2933;52.302;8.134;2022-10-13T13:15:54;10.57;;;6.23;;
5813;SDS011;2933;52.302;8.134;2022-10-13T13:21:13;12.80;;;6.40;;
5813;SDS011;2933;52.302;8.134;2022-10-13T13:26:17;13.87;;;6.57;;
5813;SDS011;2933;52.302;8.134;2022-10-13T13:31:22;10.93;;;6.20;;
5813;SDS011;2933;52.302;8.134;2022-10-13T13:36:25;10.73;;;7.20;;
5813;SDS011;2933;52.302;8.134;2022-10-13T13:41:27;9.50;;;5.90;;
5813;SDS011;2933;52.302;8.134;2022-10-13T13:46:31;11.70;;;7.00;;
5813;SDS011;2933;52.302;8.134;2022-10-13T13:51:34;8.10;;;5.93;;
5813;SDS011;2933;52.302;8.134;2022-10-13T13:56:35;15.83;;;5.50;;
5813;SDS011;2933;52.302;8.134;2022-10-13T14:01:40;8.87;;;5.63;;
5813;SDS011;2933;52.302;8.134;2022-10-13T14:06:42;11.10;;;5.17;;
5813;SDS011;2933;52.302;8.134;2022-10-13T14:11:43;14.30;;;6.20;;
5813;SDS011;2933;52.302;8.134;2022-10-13T14:16:46;11.23;;;5.23;;
5813;SDS011;2933;52.302;8.134;2022-10-13T14:21:47;12.60;;;5.10;;
5813;SDS011;2933;52.302;8.134;2022-10-13T14:26:49;13.33;;;5.37;;
5813;SDS011;2933;52.302;8.134;2022-10-13T14:31:52;7.93;;;4.90;;
5813;SDS011;2933;52.302;8.134;2022-10-13T14:36:53;7.60;;;4.97;;
5813;SDS011;2933;52.302;8.134;2022-10-13T14:41:55;9.17;;;4.97;;
5813;SDS011;2933;52.302;8.134;2022-10-13T14:46:58;9.53;;;5.10;;
5813;SDS011;2933;52.302;8.134;2022-10-13T14:51:59;6.03;;;5.00;;
5813;SDS011;2933;52.302;8.134;2022-10-13T14:57:01;7.90;;;5.30;;
5813;SDS011;2933;52.302;8.134;2022-10-13T15:02:07;12.60;;;4.50;;
5813;SDS011;2933;52.302;8.134;2022-10-13T15:07:09;6.13;;;4.73;;
5813;SDS011;2933;52.302;8.134;2022-10-13T15:12:10;10.53;;;5.90;;
5813;SDS011;2933;52.302;8.134;2022-10-13T15:17:13;12.23;;;5.90;;
5813;SDS011;2933;52.302;8.134;2022-10-13T15:22:15;11.13;;;6.30;;
5813;SDS011;2933;52.302;8.134;2022-10-13T15:27:16;12.30;;;7.10;;
5813;SDS011;2933;52.302;8.134;2022-10-13T15:32:20;14.17;;;6.67;;
5813;SDS011;2933;52.302;8.134;2022-10-13T15:37:21;12.10;;;6.20;;
5813;SDS011;2933;52.302;8.134;2022-10-13T15:42:23;10.37;;;6.90;;
5813;SDS011;2933;52.302;8.134;2022-10-13T15:47:26;15.10;;;6.97;;
5813;SDS011;2933;52.302;8.134;2022-10-13T15:52:27;13.53;;;7.10;;
5813;SDS011;2933;52.302;8.134;2022-10-13T15:57:29;12.30;;;6.97;;
5813;SDS011;2933;52.302;8.134;2022-10-13T16:02:32;20.43;;;7.03;;
5813;SDS011;2933;52.302;8.134;2022-10-13T16:07:34;10.10;;;7.60;;
5813;SDS011;2933;52.302;8.134;2022-10-13T16:12:35;13.57;;;8.27;;
5813;SDS011;2933;52.302;8.134;2022-10-13T16:17:38;14.83;;;8.43;;
5813;SDS011;2933;52.302;8.134;2022-10-13T16:22:40;12.70;;;8.87;;
5813;SDS011;2933;52.302;8.134;2022-10-13T16:27:42;16.67;;;8.73;;
5813;SDS011;2933;52.302;8.134;2022-10-13T16:32:45;11.60;;;8.63;;
5813;SDS011;2933;52.302;8.134;2022-10-13T16:37:46;12.67;;;8.90;;
5813;SDS011;2933;52.302;8.134;2022-10-13T16:42:51;17.00;;;9.33;;
5813;SDS011;2933;52.302;8.134;2022-10-13T16:47:54;21.83;;;8.60;;
5813;SDS011;2933;52.302;8.134;2022-10-13T16:52:55;15.50;;;9.53;;
5813;SDS011;2933;52.302;8.134;2022-10-13T16:57:58;11.30;;;8.43;;
5813;SDS011;2933;52.302;8.134;2022-10-13T17:03:01;14.10;;;9.30;;
5813;SDS011;2933;52.302;8.134;2022-10-13T17:08:03;17.70;;;10.37;;
5813;SDS011;2933;52.302;8.134;2022-10-13T17:13:05;12.83;;;8.40;;
5813;SDS011;2933;52.302;8.134;2022-10-13T17:18:08;12.43;;;10.13;;
5813;SDS011;2933;52.302;8.134;2022-10-13T17:23:09;12.50;;;10.37;;
5813;SDS011;2933;52.302;8.134;2022-10-13T17:28:11;17.80;;;12.13;;
5813;SDS011;2933;52.302;8.134;2022-10-13T17:33:14;16.83;;;12.40;;
5813;SDS011;2933;52.302;8.134;2022-10-13T17:38:16;23.93;;;12.60;;
5813;SDS011;2933;52.302;8.134;2022-10-13T17:43:17;18.93;;;14.20;;
5813;SDS011;2933;52.302;8.134;2022-10-13T17:48:20;19.70;;;13.90;;
5813;SDS011;2933;52.302;8.134;2022-10-13T17:53:22;25.03;;;15.70;;
5813;SDS011;2933;52.302;8.134;2022-10-13T17:58:24;20.27;;;15.63;;
5813;SDS011;2933;52.302;8.134;2022-10-13T18:03:26;18.83;;;15.20;;
5813;SDS011;2933;52.302;8.134;2022-10-13T18:08:28;23.60;;;15.37;;
5813;SDS011;2933;52.302;8.134;2022-10-13T18:13:33;18.50;;;16.40;;
5813;SDS011;2933;52.302;8.134;2022-10-13T18:18:36;21.43;;;18.10;;
5813;SDS011;2933;52.302;8.134;2022-10-13T18:23:38;24.13;;;15.43;;
5813;SDS011;2933;52.302;8.134;2022-10-13T18:28:41;19.60;;;17.10;;
5813;SDS011;2933;52.302;8.134;2022-10-13T18:33:45;19.20;;;16.80;;
5813;SDS011;2933;52.302;8.134;2022-10-13T18:38:47;28.60;;;18.10;;
5813;SDS011;2933;52.302;8.134;2022-10-13T18:43:49;24.37;;;18.40;;
5813;SDS011;2933;52.302;8.134;2022-10-13T18:48:52;28.17;;;20.27;;
5813;SDS011;2933;52.302;8.134;2022-10-13T18:53:54;27.50;;;20.53;;
5813;SDS011;2933;52.302;8.134;2022-10-13T18:58:57;32.80;;;22.80;;
5813;SDS011;2933;52.302;8.134;2022-10-13T19:04:02;33.63;;;22.90;;
5813;SDS011;2933;52.302;8.134;2022-10-13T19:09:05;33.77;;;22.20;;
5813;SDS011;2933;52.302;8.134;2022-10-13T19:14:09;35.53;;;21.10;;
5813;SDS011;2933;52.302;8.134;2022-10-13T19:19:14;27.67;;;22.73;;
5813;SDS011;2933;52.302;8.134;2022-10-13T19:24:15;33.80;;;24.60;;
5813;SDS011;2933;52.302;8.134;2022-10-13T19:29:18;30.90;;;23.73;;
5813;SDS011;2933;52.302;8.134;2022-10-13T19:34:21;36.10;;;24.03;;
5813;SDS011;2933;52.302;8.134;2022-10-13T19:39:24;29.73;;;23.80;;
5813;SDS011;2933;52.302;8.134;2022-10-13T19:44:26;33.30;;;25.10;;
5813;SDS011;2933;52.302;8.134;2022-10-13T19:49:29;33.57;;;24.93;;
5813;SDS011;2933;52.302;8.134;2022-10-13T19:54:30;37.90;;;25.90;;
5813;SDS011;2933;52.302;8.134;2022-10-13T19:59:35;34.10;;;25.70;;
5813;SDS011;2933;52.302;8.134;2022-10-13T20:04:38;41.83;;;25.80;;
5813;SDS011;2933;52.302;8.134;2022-10-13T20:09:39;45.30;;;27.60;;
5813;SDS011;2933;52.302;8.134;2022-10-13T20:14:41;37.93;;;26.57;;
5813;SDS011;2933;52.302;8.134;2022-10-13T20:19:44;39.40;;;27.60;;
5813;SDS011;2933;52.302;8.134;2022-10-13T20:24:45;34.60;;;28.20;;
5813;SDS011;2933;52.302;8.134;2022-10-13T20:29:48;39.33;;;26.47;;
5813;SDS011;2933;52.302;8.134;2022-10-13T20:34:51;38.30;;;28.47;;
5813;SDS011;2933;52.302;8.134;2022-10-13T20:39:52;37.40;;;28.27;;
5813;SDS011;2933;52.302;8.134;2022-10-13T20:44:54;43.67;;;31.97;;
5813;SDS011;2933;52.302;8.134;2022-10-13T20:49:57;37.43;;;31.63;;
5813;SDS011;2933;52.302;8.134;2022-10-13T20:54:58;42.40;;;33.17;;
5813;SDS011;2933;52.302;8.134;2022-10-13T21:00:00;47.70;;;33.57;;
5813;SDS011;2933;52.302;8.134;2022-10-13T21:05:03;43.53;;;34.33;;
5813;SDS011;2933;52.302;8.134;2022-10-13T21:10:05;45.67;;;34.20;;
5813;SDS011;2933;52.302;8.134;2022-10-13T21:15:08;51.67;;;36.60;;
5813;SDS011;2933;52.302;8.134;2022-10-13T21:20:11;45.60;;;37.10;;
5813;SDS011;2933;52.302;8.134;2022-10-13T21:25:13;57.20;;;40.67;;
5813;SDS011;2933;52.302;8.134;2022-10-13T21:30:14;57.00;;;38.90;;
5813;SDS011;2933;52.302;8.134;2022-10-13T21:35:17;51.13;;;38.37;;
5813;SDS011;2933;52.302;8.134;2022-10-13T21:40:19;56.27;;;39.40;;
5813;SDS011;2933;52.302;8.134;2022-10-13T21:45:20;58.13;;;43.37;;
5813;SDS011;2933;52.302;8.134;2022-10-13T21:50:23;56.70;;;43.40;;
5813;SDS011;2933;52.302;8.134;2022-10-13T21:55:25;63.07;;;43.40;;
5813;SDS011;2933;52.302;8.134;2022-10-13T22:00:27;57.10;;;42.07;;
5813;SDS011;2933;52.302;8.134;2022-10-13T22:05:30;69.43;;;43.97;;
5813;SDS011;2933;52.302;8.134;2022-10-13T22:10:32;64.97;;;48.00;;
5813;SDS011;2933;52.302;8.134;2022-10-13T22:15:34;65.53;;;48.00;;
5813;SDS011;2933;52.302;8.134;2022-10-13T22:20:37;66.43;;;50.37;;
5813;SDS011;2933;52.302;8.134;2022-10-13T22:25:41;69.30;;;50.53;;
5813;SDS011;2933;52.302;8.134;2022-10-13T22:30:44;72.67;;;49.90;;
5813;SDS011;2933;52.302;8.134;2022-10-13T22:35:47;73.17;;;48.47;;
5813;SDS011;2933;52.302;8.134;2022-10-13T22:40:48;82.67;;;49.80;;
5813;SDS011;2933;52.302;8.134;2022-10-13T22:45:50;75.20;;;49.23;;
5813;SDS011;2933;52.302;8.134;2022-10-13T22:50:53;65.07;;;48.77;;
5813;SDS011;2933;52.302;8.134;2022-10-13T22:55:55;70.70;;;50.40;;
5813;SDS011;2933;52.302;8.134;2022-10-13T23:00:58;73.37;;;51.40;;
5813;SDS011;2933;52.302;8.134;2022-10-13T23:06:07;69.03;;;51.40;;
5813;SDS011;2933;52.302;8.134;2022-10-13T23:11:12;69.67;;;51.30;;
5813;SDS011;2933;52.302;8.134;2022-10-13T23:16:16;68.93;;;49.77;;
5813;SDS011;2933;52.302;8.134;2022-10-13T23:21:20;72.47;;;49.23;;
5813;SDS011;2933;52.302;8.134;2022-10-13T23:26:23;67.23;;;49.70;;
5813;SDS011;2933;52.302;8.134;2022-10-13T23:31:25;64.73;;;47.10;;
5813;SDS011;2933;52.302;8.134;2022-10-13T23:36:29;71.37;;;50.20;;
5813;SDS011;2933;52.302;8.134;2022-10-13T23:41:32;64.40;;;47.60;;
5813;SDS011;2933;52.302;8.134;2022-10-13T23:46:34;65.63;;;47.07;;
5813;SDS011;2933;52.302;8.134;2022-10-13T23:51:37;72.53;;;50.07;;
5813;SDS011;2933;52.302;8.134;2022-10-13T23:56:42;67.17;;;48.00;;
